Time;durP1;ratioP1;P1;durP2;ratioP2;P2;SDS_P1;SDS_P2;PMS_P1;PMS_P2;Temp;Humidity;BMP_temperature;BMP_pressure;BME280_temperature;BME280_humidity;BME280_pressure;Samples;Min_cycle;Max_cycle;Signal;HPM_P1;HPM_P2
2021/08/24 00:01:40;;;;;;;;;;;9.40;99.90;;;;;;5031994;28;19916;-67
2021/08/24 00:04:07;;;;;;;;;;;9.50;99.90;;;;;;5031971;28;19917;-67
2021/08/24 00:06:33;;;;;;;;;;;9.40;99.90;;;;;;5031768;28;19913;-67
2021/08/24 00:09:00;;;;;;;;;;;9.30;99.90;;;;;;5031985;28;20305;-67
2021/08/24 00:11:27;;;;;;;;;;;9.40;99.90;;;;;;5032009;28;19916;-68
2021/08/24 00:13:53;;;;;;;;;;;9.40;99.90;;;;;;5031777;28;19909;-68
2021/08/24 00:16:20;;;;;;;;;;;9.40;99.90;;;;;;5031927;28;20005;-67
2021/08/24 00:18:47;;;;;;;;;;;9.20;99.90;;;;;;5031952;28;19917;-68
2021/08/24 00:21:14;;;;;;;;;;;9.30;99.90;;;;;;5031775;28;19913;-68
2021/08/24 00:23:40;;;;;;;;;;;9.30;99.90;;;;;;5031579;28;19921;-68
2021/08/24 00:26:07;;;;;;;;;;;9.40;99.90;;;;;;5031809;28;20137;-68
2021/08/24 00:28:34;;;;;;;;;;;9.30;99.90;;;;;;5031824;28;19918;-68
2021/08/24 00:31:00;;;;;;;;;;;9.30;99.90;;;;;;5031769;28;20001;-68
2021/08/24 00:33:27;;;;;;;;;;;9.50;99.90;;;;;;5034092;28;19909;-68
2021/08/24 00:35:54;;;;;;;;;;;9.40;99.90;;;;;;5034804;28;20382;-68
2021/08/24 00:38:22;;;;;;;;;;;9.40;99.90;;;;;;5035129;28;19936;-68
2021/08/24 00:40:56;;;;;;;;;;;9.50;99.90;;;;;;5035445;28;19932;-68
2021/08/24 00:43:24;;;;;;;;;;;9.40;99.90;;;;;;5034945;28;19913;-68
2021/08/24 00:45:54;;;;;;;;;;;9.30;99.90;;;;;;5035115;28;19929;-68
2021/08/24 00:48:26;;;;;;;;;;;9.40;99.90;;;;;;5035007;28;19924;-68
2021/08/24 00:50:53;;;;;;;;;;;9.50;99.90;;;;;;5034897;28;19909;-68
2021/08/24 00:53:22;;;;;;;;;;;9.50;99.90;;;;;;5035154;28;19963;-68
2021/08/24 00:55:50;;;;;;;;;;;9.40;99.90;;;;;;5034832;28;19916;-68
2021/08/24 00:58:17;;;;;;;;;;;9.40;99.90;;;;;;5050062;28;19971;-68
2021/08/24 01:00:44;;;;;;;;;;;9.30;99.90;;;;;;5034821;28;19963;-68
2021/08/24 01:03:21;;;;;;;;;;;9.30;99.90;;;;;;5034644;28;19909;-68
2021/08/24 01:05:49;;;;;;;;;;;9.10;99.90;;;;;;5034326;28;19940;-68
2021/08/24 01:08:25;;;;;;;;;;;9.00;99.90;;;;;;5034561;28;19909;-68
2021/08/24 01:11:00;;;;;;;;;;;9.00;99.90;;;;;;5034680;28;19916;-68
2021/08/24 01:13:27;;;;;;;;;;;9.00;99.90;;;;;;5034551;28;19913;-68
2021/08/24 01:15:57;;;;;;;;;;;9.10;99.90;;;;;;5034835;28;20000;-68
2021/08/24 01:18:42;;;;;;;;;;;9.10;99.90;;;;;;5034583;28;19915;-68
2021/08/24 01:21:21;;;;;;;;;;;9.10;99.90;;;;;;5034321;28;19999;-68
2021/08/24 01:23:49;;;;;;;;;;;9.30;99.90;;;;;;5033974;28;19921;-68
2021/08/24 01:26:22;;;;;;;;;;;9.30;99.90;;;;;;5034375;28;20394;-68
2021/08/24 01:29:07;;;;;;;;;;;9.30;99.90;;;;;;5034300;28;19913;-68
2021/08/24 01:31:39;;;;;;;;;;;9.30;99.90;;;;;;5034165;28;19932;-68
2021/08/24 01:34:24;;;;;;;;;;;9.30;99.90;;;;;;5034224;28;19909;-68
2021/08/24 01:36:56;;;;;;;;;;;9.30;99.90;;;;;;5033994;28;20269;-68
2021/08/24 01:39:36;;;;;;;;;;;9.10;99.90;;;;;;5021013;28;19996;-68
2021/08/24 01:42:12;;;;;;;;;;;9.10;99.90;;;;;;5014241;28;19929;-67
2021/08/24 01:44:53;;;;;;;;;;;9.10;99.90;;;;;;5013322;28;19940;-68
2021/08/24 01:47:34;;;;;;;;;;;9.10;99.90;;;;;;5014073;28;19921;-68
2021/08/24 01:50:09;;;;;;;;;;;9.30;99.90;;;;;;5014100;28;19914;-68
2021/08/24 01:52:38;;;;;;;;;;;9.40;99.90;;;;;;5013548;28;19917;-68
2021/08/24 01:55:07;;;;;;;;;;;9.40;99.90;;;;;;5013694;28;20272;-68
2021/08/24 01:57:37;;;;;;;;;;;9.40;99.90;;;;;;5013653;28;19909;-68
2021/08/24 02:00:07;;;;;;;;;;;9.40;99.90;;;;;;5014156;28;20424;-67
2021/08/24 02:02:37;;;;;;;;;;;9.40;99.90;;;;;;5014146;28;19910;-68
2021/08/24 02:05:07;;;;;;;;;;;9.40;99.90;;;;;;5013773;28;19918;-68
2021/08/24 02:07:34;;;;;;;;;;;9.40;99.90;;;;;;5013504;28;19910;-68
2021/08/24 02:10:11;;;;;;;;;;;9.40;99.90;;;;;;5013894;28;20407;-67
2021/08/24 02:12:40;;;;;;;;;;;9.50;99.90;;;;;;5013589;28;19910;-67
2021/08/24 02:15:07;;;;;;;;;;;9.50;99.90;;;;;;5013928;28;19941;-67
2021/08/24 02:17:35;;;;;;;;;;;9.50;99.90;;;;;;5013662;28;19909;-67
2021/08/24 02:20:09;;;;;;;;;;;9.60;99.90;;;;;;5013600;28;19917;-67
2021/08/24 02:22:37;;;;;;;;;;;9.80;99.90;;;;;;5013702;28;20008;-68
2021/08/24 02:25:04;;;;;;;;;;;9.80;99.90;;;;;;5013538;28;19924;-68
2021/08/24 02:27:32;;;;;;;;;;;9.60;99.90;;;;;;5013273;28;19944;-69
2021/08/24 02:29:59;;;;;;;;;;;9.50;99.90;;;;;;5013379;28;19913;-68
2021/08/24 02:32:28;;;;;;;;;;;9.60;99.90;;;;;;5013439;28;19909;-68
2021/08/24 02:34:55;;;;;;;;;;;9.60;99.90;;;;;;5013194;28;19909;-68
2021/08/24 02:37:28;;;;;;;;;;;9.60;99.90;;;;;;5013713;28;20257;-67
2021/08/24 02:40:12;;;;;;;;;;;9.70;99.90;;;;;;5013306;28;19910;-68
2021/08/24 02:42:53;;;;;;;;;;;9.70;99.90;;;;;;5013805;28;19963;-68
2021/08/24 02:45:24;;;;;;;;;;;9.80;99.90;;;;;;5013451;28;20280;-68
2021/08/24 02:47:51;;;;;;;;;;;9.80;99.90;;;;;;5013042;28;19930;-68
2021/08/24 02:50:18;;;;;;;;;;;9.90;99.90;;;;;;5013384;28;19910;-68
2021/08/24 02:52:45;;;;;;;;;;;9.80;99.90;;;;;;5013157;28;19949;-67
2021/08/24 02:55:12;;;;;;;;;;;9.70;99.90;;;;;;5044686;28;19952;-67
2021/08/24 02:57:39;;;;;;;;;;;9.80;99.90;;;;;;5012867;28;20372;-68
2021/08/24 03:00:06;;;;;;;;;;;9.80;99.90;;;;;;5012911;28;20003;-68
2021/08/24 03:02:33;;;;;;;;;;;9.80;99.90;;;;;;5013358;28;20360;-68
2021/08/24 03:05:00;;;;;;;;;;;9.80;99.90;;;;;;5013096;28;19964;-68
2021/08/24 03:07:31;;;;;;;;;;;9.80;99.90;;;;;;5013270;28;19958;-68
2021/08/24 03:10:03;;;;;;;;;;;9.80;99.90;;;;;;5012977;28;19910;-68
2021/08/24 03:12:29;;;;;;;;;;;9.80;99.90;;;;;;5012989;28;19917;-68
2021/08/24 03:15:18;;;;;;;;;;;9.80;99.90;;;;;;5013044;28;20477;-68
2021/08/24 03:17:50;;;;;;;;;;;9.80;99.90;;;;;;5012926;28;20336;-68
2021/08/24 03:20:19;;;;;;;;;;;9.90;99.90;;;;;;5025538;28;19932;-68
2021/08/24 03:22:46;;;;;;;;;;;9.90;99.90;;;;;;5032757;28;19958;-66
2021/08/24 03:25:13;;;;;;;;;;;10.00;99.90;;;;;;5032480;28;19957;-68
2021/08/24 03:27:42;;;;;;;;;;;10.00;99.90;;;;;;5033797;28;19913;-67
2021/08/24 03:30:10;;;;;;;;;;;10.00;99.90;;;;;;5037009;28;19941;-69
2021/08/24 03:32:37;;;;;;;;;;;10.00;99.90;;;;;;5039942;28;19909;-68
2021/08/24 03:35:04;;;;;;;;;;;10.10;99.90;;;;;;5036330;28;19996;-68
2021/08/24 03:37:32;;;;;;;;;;;10.10;99.90;;;;;;5031806;28;19979;-68
2021/08/24 03:39:59;;;;;;;;;;;10.10;99.90;;;;;;5032587;28;20007;-68
2021/08/24 03:42:25;;;;;;;;;;;10.10;99.90;;;;;;5032647;28;20374;-69
2021/08/24 03:44:52;;;;;;;;;;;10.20;99.90;;;;;;5032354;28;19950;-68
2021/08/24 03:47:19;;;;;;;;;;;10.20;99.90;;;;;;5032391;28;20011;-68
2021/08/24 03:49:45;;;;;;;;;;;10.30;99.90;;;;;;5032331;28;19989;-67
2021/08/24 03:52:12;;;;;;;;;;;10.30;99.90;;;;;;5032343;28;19944;-68
2021/08/24 03:54:40;;;;;;;;;;;10.20;99.90;;;;;;5032339;28;19956;-68
2021/08/24 03:57:06;;;;;;;;;;;10.30;99.90;;;;;;5032523;28;20368;-69
2021/08/24 03:59:33;;;;;;;;;;;10.20;99.90;;;;;;5032090;28;19909;-68
2021/08/24 04:02:01;;;;;;;;;;;10.20;99.90;;;;;;5032223;28;19992;-68
2021/08/24 04:04:28;;;;;;;;;;;10.20;99.90;;;;;;5030708;28;20292;-69
2021/08/24 04:06:57;;;;;;;;;;;10.30;99.90;;;;;;5032530;28;20370;-68
2021/08/24 04:09:24;;;;;;;;;;;10.30;99.90;;;;;;5036383;28;19916;-67
2021/08/24 04:11:50;;;;;;;;;;;10.20;99.90;;;;;;5035814;28;19990;-67
2021/08/24 04:14:17;;;;;;;;;;;10.20;99.90;;;;;;5035922;28;20379;-70
2021/08/24 04:16:44;;;;;;;;;;;10.20;99.90;;;;;;5035846;28;19944;-68
2021/08/24 04:19:12;;;;;;;;;;;10.20;99.90;;;;;;5035583;28;19913;-68
2021/08/24 04:21:40;;;;;;;;;;;10.10;99.90;;;;;;5035812;28;20004;-69
2021/08/24 04:24:07;;;;;;;;;;;10.00;99.90;;;;;;5035843;28;19917;-68
2021/08/24 04:26:34;;;;;;;;;;;10.10;99.90;;;;;;5035893;28;20016;-68
2021/08/24 04:29:02;;;;;;;;;;;10.00;99.90;;;;;;5035797;28;19913;-67
2021/08/24 04:31:32;;;;;;;;;;;9.90;99.90;;;;;;5035646;28;19909;-69
2021/08/24 04:33:59;;;;;;;;;;;9.90;99.90;;;;;;5035726;28;19909;-68
2021/08/24 04:36:25;;;;;;;;;;;9.90;99.90;;;;;;5035454;28;20271;-68
2021/08/24 04:38:52;;;;;;;;;;;10.00;99.90;;;;;;5035524;28;19972;-68
2021/08/24 04:41:19;;;;;;;;;;;9.90;99.90;;;;;;5035324;28;19910;-68
2021/08/24 04:43:46;;;;;;;;;;;9.90;99.90;;;;;;5033494;28;19921;-68
2021/08/24 04:46:12;;;;;;;;;;;10.00;99.90;;;;;;5034844;28;19917;-68
2021/08/24 04:48:39;;;;;;;;;;;9.80;99.90;;;;;;5035056;28;20411;-68
2021/08/24 04:51:06;;;;;;;;;;;9.80;99.90;;;;;;5034805;28;19909;-68
2021/08/24 04:53:34;;;;;;;;;;;9.80;99.90;;;;;;5035026;28;19970;-68
2021/08/24 04:56:00;;;;;;;;;;;9.80;99.90;;;;;;5035114;28;19909;-69
2021/08/24 04:58:27;;;;;;;;;;;9.90;99.90;;;;;;5035029;28;19909;-67
2021/08/24 05:00:53;;;;;;;;;;;9.80;99.90;;;;;;5035484;28;19909;-68
2021/08/24 05:03:20;;;;;;;;;;;9.90;99.90;;;;;;5036914;28;19916;-69
2021/08/24 05:05:47;;;;;;;;;;;9.90;99.90;;;;;;5037998;28;19913;-68
2021/08/24 05:08:13;;;;;;;;;;;9.80;99.90;;;;;;5034753;28;19936;-67
2021/08/24 05:10:40;;;;;;;;;;;9.70;99.90;;;;;;5034748;28;19913;-68
2021/08/24 05:13:07;;;;;;;;;;;9.80;99.90;;;;;;5034881;28;19956;-68
2021/08/24 05:15:33;;;;;;;;;;;9.60;99.90;;;;;;5034626;28;19909;-68
2021/08/24 05:18:00;;;;;;;;;;;9.70;99.90;;;;;;5034686;28;19909;-68
2021/08/24 05:20:28;;;;;;;;;;;9.60;99.90;;;;;;5033336;28;19909;-68
2021/08/24 05:22:56;;;;;;;;;;;9.60;99.90;;;;;;5034440;28;19964;-69
2021/08/24 05:25:23;;;;;;;;;;;9.70;99.90;;;;;;5034243;28;19924;-66
2021/08/24 05:27:50;;;;;;;;;;;9.70;99.90;;;;;;5034370;28;19915;-67
2021/08/24 05:30:20;;;;;;;;;;;9.60;99.90;;;;;;5034468;28;19963;-68
2021/08/24 05:32:47;;;;;;;;;;;9.50;99.90;;;;;;5034601;28;19916;-68
2021/08/24 05:35:15;;;;;;;;;;;9.60;99.90;;;;;;5034391;28;19913;-67
2021/08/24 05:37:41;;;;;;;;;;;9.50;99.90;;;;;;5034180;28;19917;-68
2021/08/24 05:40:09;;;;;;;;;;;9.50;99.90;;;;;;5034633;28;19955;-68
2021/08/24 05:42:35;;;;;;;;;;;9.50;99.90;;;;;;5034547;28;19979;-68
2021/08/24 05:45:02;;;;;;;;;;;9.50;99.90;;;;;;5034571;28;19918;-68
2021/08/24 05:47:29;;;;;;;;;;;9.50;99.90;;;;;;5033882;28;20482;-68
2021/08/24 05:49:59;;;;;;;;;;;9.60;99.90;;;;;;5033995;28;19909;-67
2021/08/24 05:52:26;;;;;;;;;;;9.50;99.90;;;;;;5033870;28;19909;-69
2021/08/24 05:54:53;;;;;;;;;;;9.50;99.90;;;;;;5034034;28;19979;-68
2021/08/24 05:57:20;;;;;;;;;;;9.40;99.90;;;;;;5032475;28;19917;-67
2021/08/24 05:59:48;;;;;;;;;;;9.20;99.90;;;;;;5033872;28;20012;-67
2021/08/24 06:02:15;;;;;;;;;;;9.30;99.90;;;;;;5033952;28;19913;-67
2021/08/24 06:04:42;;;;;;;;;;;9.20;99.90;;;;;;5033974;28;19917;-67
2021/08/24 06:07:10;;;;;;;;;;;9.30;99.90;;;;;;5033575;28;19955;-67
2021/08/24 06:09:39;;;;;;;;;;;9.30;99.90;;;;;;5033579;28;20012;-68
2021/08/24 06:12:05;;;;;;;;;;;9.30;99.90;;;;;;5033829;28;19909;-68
2021/08/24 06:14:33;;;;;;;;;;;9.20;99.90;;;;;;5033640;28;19909;-67
2021/08/24 06:17:01;;;;;;;;;;;9.00;99.90;;;;;;5034050;28;19916;-67
2021/08/24 06:19:29;;;;;;;;;;;8.90;99.90;;;;;;5033413;28;19909;-67
2021/08/24 06:22:00;;;;;;;;;;;8.80;99.90;;;;;;5032343;28;20334;-68
2021/08/24 06:24:30;;;;;;;;;;;8.90;99.90;;;;;;5033654;28;20011;-67
2021/08/24 06:26:57;;;;;;;;;;;8.70;99.90;;;;;;5033579;28;19940;-68
2021/08/24 06:29:24;;;;;;;;;;;8.80;99.90;;;;;;5033605;28;19972;-66
2021/08/24 06:31:52;;;;;;;;;;;8.70;99.90;;;;;;5035230;28;19980;-67
2021/08/24 06:34:22;;;;;;;;;;;8.80;99.90;;;;;;5037488;28;20264;-66
2021/08/24 06:36:50;;;;;;;;;;;8.80;99.90;;;;;;5037757;28;19948;-66
2021/08/24 06:39:20;;;;;;;;;;;8.80;99.90;;;;;;5033379;28;19955;-68
2021/08/24 06:41:47;;;;;;;;;;;8.80;99.90;;;;;;5032945;28;20360;-67
2021/08/24 06:44:14;;;;;;;;;;;8.80;99.90;;;;;;5031560;28;20425;-67
2021/08/24 06:46:41;;;;;;;;;;;8.70;99.90;;;;;;5032640;28;19924;-69
2021/08/24 06:49:08;;;;;;;;;;;8.80;99.90;;;;;;5033016;28;19913;-67
2021/08/24 06:51:36;;;;;;;;;;;8.90;99.90;;;;;;5030906;28;19989;-68
2021/08/24 06:54:03;;;;;;;;;;;8.70;99.90;;;;;;5030968;28;20433;-68
2021/08/24 06:56:33;;;;;;;;;;;8.70;99.90;;;;;;5029247;28;19986;-68
2021/08/24 06:59:01;;;;;;;;;;;8.60;99.90;;;;;;5031024;28;20012;-67
2021/08/24 07:01:29;;;;;;;;;;;8.60;99.90;;;;;;5030998;28;19910;-67
2021/08/24 07:03:57;;;;;;;;;;;8.60;99.90;;;;;;5030803;28;20390;-67
2021/08/24 07:06:24;;;;;;;;;;;8.60;99.90;;;;;;5030924;28;19960;-68
2021/08/24 07:08:56;;;;;;;;;;;8.50;99.90;;;;;;5031119;28;19914;-67
2021/08/24 07:11:26;;;;;;;;;;;8.60;99.90;;;;;;5031035;28;19913;-67
2021/08/24 07:13:57;;;;;;;;;;;8.60;99.90;;;;;;5030565;28;19967;-68
2021/08/24 07:16:24;;;;;;;;;;;8.60;99.90;;;;;;5030774;28;20394;-67
2021/08/24 07:18:52;;;;;;;;;;;8.50;99.90;;;;;;5029592;28;19917;-68
2021/08/24 07:21:19;;;;;;;;;;;8.50;99.90;;;;;;5030606;28;19909;-68
2021/08/24 07:23:46;;;;;;;;;;;8.60;99.90;;;;;;5030420;28;19913;-68
2021/08/24 07:26:14;;;;;;;;;;;8.60;99.90;;;;;;5030395;28;20536;-67
2021/08/24 07:28:41;;;;;;;;;;;8.50;99.90;;;;;;5029436;28;19916;-68
2021/08/24 07:31:09;;;;;;;;;;;8.50;99.90;;;;;;5030152;28;19909;-67
2021/08/24 07:33:35;;;;;;;;;;;8.40;99.90;;;;;;5028935;28;19952;-67
2021/08/24 07:36:03;;;;;;;;;;;8.60;99.90;;;;;;5030793;28;19916;-68
2021/08/24 07:38:31;;;;;;;;;;;8.60;99.90;;;;;;5030765;28;19956;-68
2021/08/24 07:40:57;;;;;;;;;;;8.60;99.90;;;;;;5030360;28;20334;-67
2021/08/24 07:43:24;;;;;;;;;;;8.60;99.90;;;;;;5031464;28;20000;-67
2021/08/24 07:45:51;;;;;;;;;;;8.70;99.90;;;;;;5034443;28;20445;-67
2021/08/24 07:48:18;;;;;;;;;;;8.70;99.90;;;;;;5034300;28;19998;-67
2021/08/24 07:50:44;;;;;;;;;;;8.70;99.90;;;;;;5034408;28;19909;-67
2021/08/24 07:53:11;;;;;;;;;;;8.60;99.90;;;;;;5034454;28;19913;-67
2021/08/24 07:55:38;;;;;;;;;;;8.60;99.90;;;;;;5033877;28;19909;-67
2021/08/24 07:58:07;;;;;;;;;;;8.70;99.90;;;;;;5033824;28;19932;-67
2021/08/24 08:00:34;;;;;;;;;;;8.80;99.90;;;;;;5038381;28;19916;-67
2021/08/24 08:03:01;;;;;;;;;;;8.80;99.90;;;;;;5040454;28;19920;-67
2021/08/24 08:05:27;;;;;;;;;;;8.70;99.90;;;;;;5042389;28;19944;-68
2021/08/24 08:07:55;;;;;;;;;;;8.70;99.90;;;;;;5033860;28;19909;-67
2021/08/24 08:10:22;;;;;;;;;;;8.70;99.90;;;;;;5033964;28;19916;-67
2021/08/24 08:12:49;;;;;;;;;;;8.80;99.90;;;;;;5034113;28;19920;-67
2021/08/24 08:15:17;;;;;;;;;;;8.80;99.90;;;;;;5034169;28;19964;-68
2021/08/24 08:17:44;;;;;;;;;;;8.80;99.90;;;;;;5032257;28;19920;-67
2021/08/24 08:20:11;;;;;;;;;;;8.80;99.90;;;;;;5034634;28;19917;-68
2021/08/24 08:22:38;;;;;;;;;;;8.80;99.90;;;;;;5033292;28;20295;-67
2021/08/24 08:25:07;;;;;;;;;;;8.80;99.90;;;;;;5033967;28;19960;-67
2021/08/24 08:27:33;;;;;;;;;;;8.80;99.90;;;;;;5033417;28;20386;-67
2021/08/24 08:30:00;;;;;;;;;;;8.80;99.90;;;;;;5033721;28;19909;-67
2021/08/24 08:32:31;;;;;;;;;;;8.80;99.90;;;;;;5033480;28;20008;-67
2021/08/24 08:34:59;;;;;;;;;;;8.90;99.90;;;;;;5033348;28;20368;-67
2021/08/24 08:37:26;;;;;;;;;;;8.90;99.90;;;;;;5032041;28;20419;-68
2021/08/24 08:39:53;;;;;;;;;;;8.90;99.90;;;;;;5033633;28;20236;-68
2021/08/24 08:42:19;;;;;;;;;;;8.90;99.90;;;;;;5031954;28;20268;-67
2021/08/24 08:44:55;;;;;;;;;;;8.90;99.90;;;;;;5033317;28;19964;-67
2021/08/24 08:47:39;;;;;;;;;;;9.00;99.90;;;;;;5033138;28;19932;-68
2021/08/24 08:50:35;;;;;;;;;;;8.90;99.90;;;;;;5033115;28;19913;-68
2021/08/24 08:53:02;;;;;;;;;;;8.90;99.90;;;;;;5031716;28;19916;-68
2021/08/24 08:55:40;;;;;;;;;;;8.90;99.90;;;;;;5033366;28;20355;-67
2021/08/24 08:58:14;;;;;;;;;;;8.90;99.90;;;;;;5032149;28;19951;-67
2021/08/24 09:00:51;;;;;;;;;;;8.90;99.90;;;;;;5031174;28;20016;-67
2021/08/24 09:03:36;;;;;;;;;;;8.90;99.90;;;;;;5033025;28;19917;-67
2021/08/24 09:06:02;;;;;;;;;;;8.90;99.90;;;;;;5033901;28;19913;-67
2021/08/24 09:08:41;;;;;;;;;;;8.90;99.90;;;;;;5034246;28;19921;-67
2021/08/24 09:11:10;;;;;;;;;;;9.00;99.90;;;;;;5034852;28;20364;-67
2021/08/24 09:13:53;;;;;;;;;;;8.90;99.90;;;;;;5034745;28;19910;-67
2021/08/24 09:16:30;;;;;;;;;;;9.00;99.90;;;;;;5034748;28;20280;-67
2021/08/24 09:19:23;;;;;;;;;;;8.90;99.90;;;;;;5034655;28;19909;-67
2021/08/24 09:21:51;;;;;;;;;;;8.80;99.90;;;;;;5034101;28;19983;-66
2021/08/24 09:24:19;;;;;;;;;;;8.80;99.90;;;;;;5034045;28;19963;-66
2021/08/24 09:26:55;;;;;;;;;;;8.80;99.90;;;;;;5034472;28;19909;-66
2021/08/24 09:29:27;;;;;;;;;;;8.80;99.90;;;;;;5034758;28;20272;-66
2021/08/24 09:31:54;;;;;;;;;;;8.70;99.90;;;;;;5034776;28;19935;-67
2021/08/24 09:34:23;;;;;;;;;;;8.80;99.90;;;;;;5037033;28;19929;-66
2021/08/24 09:36:50;;;;;;;;;;;8.70;99.90;;;;;;5034820;28;20020;-66
2021/08/24 09:39:36;;;;;;;;;;;8.70;99.90;;;;;;5033546;28;20068;-67
2021/08/24 09:42:07;;;;;;;;;;;8.70;99.90;;;;;;5034217;28;19979;-66
2021/08/24 09:44:35;;;;;;;;;;;8.70;99.90;;;;;;5033993;28;19917;-66
2021/08/24 09:47:03;;;;;;;;;;;8.60;99.90;;;;;;5033886;28;19925;-66
2021/08/24 09:49:30;;;;;;;;;;;8.50;99.90;;;;;;5033725;28;20322;-66
2021/08/24 09:52:02;;;;;;;;;;;8.50;99.90;;;;;;5034133;28;19909;-66
2021/08/24 09:54:50;;;;;;;;;;;8.50;99.90;;;;;;5033689;28;19909;-66
2021/08/24 09:57:28;;;;;;;;;;;8.50;99.90;;;;;;5033855;28;19941;-66
2021/08/24 10:00:00;;;;;;;;;;;8.60;99.90;;;;;;5034046;28;19909;-66
2021/08/24 10:02:46;;;;;;;;;;;8.50;99.90;;;;;;5033813;28;19916;-66
2021/08/24 10:05:14;;;;;;;;;;;8.50;99.90;;;;;;5033401;28;19924;-67
2021/08/24 10:07:42;;;;;;;;;;;8.50;99.90;;;;;;5032378;28;19932;-68
2021/08/24 10:10:29;;;;;;;;;;;8.50;99.90;;;;;;5033528;28;19972;-67
2021/08/24 10:12:57;;;;;;;;;;;8.50;99.90;;;;;;5033411;28;19971;-68
2021/08/24 10:15:35;;;;;;;;;;;8.50;99.90;;;;;;5033581;28;19963;-67
2021/08/24 10:18:14;;;;;;;;;;;8.50;99.90;;;;;;5033871;28;19955;-67
2021/08/24 10:20:52;;;;;;;;;;;8.50;99.90;;;;;;5033557;28;19915;-67
2021/08/24 10:23:26;;;;;;;;;;;8.40;99.90;;;;;;5032775;28;19959;-67
2021/08/24 10:25:54;;;;;;;;;;;8.50;99.90;;;;;;5033086;28;19913;-67
2021/08/24 10:28:23;;;;;;;;;;;8.50;99.90;;;;;;5033265;28;19909;-67
2021/08/24 10:30:56;;;;;;;;;;;8.40;99.90;;;;;;5033523;28;19909;-67
2021/08/24 10:33:26;;;;;;;;;;;8.40;99.90;;;;;;5033058;28;20016;-67
2021/08/24 10:35:55;;;;;;;;;;;8.40;99.90;;;;;;5032926;28;19910;-67
2021/08/24 10:38:35;;;;;;;;;;;8.40;99.90;;;;;;5032660;28;19918;-67
2021/08/24 10:41:02;;;;;;;;;;;8.30;99.90;;;;;;5032912;28;20359;-65
2021/08/24 10:43:28;;;;;;;;;;;8.30;99.90;;;;;;5032830;28;20341;-68
2021/08/24 10:46:02;;;;;;;;;;;8.30;99.90;;;;;;5032982;28;19960;-67
2021/08/24 10:48:30;;;;;;;;;;;8.30;99.90;;;;;;5033245;28;20020;-66
2021/08/24 10:51:00;;;;;;;;;;;8.20;99.90;;;;;;5032778;28;19975;-67
2021/08/24 10:53:33;;;;;;;;;;;8.20;99.90;;;;;;5032323;28;20284;-66
2021/08/24 10:56:25;;;;;;;;;;;8.20;99.90;;;;;;5032728;28;20346;-68
2021/08/24 10:58:57;;;;;;;;;;;8.20;99.90;;;;;;5032337;28;19967;-67
2021/08/24 11:01:42;;;;;;;;;;;8.20;99.90;;;;;;5032920;28;19959;-68
2021/08/24 11:04:21;;;;;;;;;;;8.20;99.90;;;;;;5033695;28;19956;-67
2021/08/24 11:06:59;;;;;;;;;;;8.20;99.90;;;;;;5033243;28;20308;-67
2021/08/24 11:09:36;;;;;;;;;;;8.20;99.90;;;;;;5032682;28;19909;-67
2021/08/24 11:12:20;;;;;;;;;;;8.20;99.90;;;;;;5032847;28;19964;-67
2021/08/24 11:14:53;;;;;;;;;;;8.10;99.90;;;;;;5032581;28;19909;-68
2021/08/24 11:17:19;;;;;;;;;;;8.10;99.90;;;;;;5031588;28;19913;-66
2021/08/24 11:20:06;;;;;;;;;;;8.10;99.90;;;;;;5033174;28;19916;-77
2021/08/24 11:22:49;;;;;;;;;;;8.00;99.90;;;;;;5033900;28;19910;-77
2021/08/24 11:25:28;;;;;;;;;;;8.00;99.90;;;;;;5065373;28;19924;-78
2021/08/24 11:28:14;;;;;;;;;;;8.00;99.90;;;;;;5032752;28;19912;-78
2021/08/24 11:30:47;;;;;;;;;;;8.00;99.90;;;;;;5032391;28;19967;-78
2021/08/24 11:33:19;;;;;;;;;;;8.00;99.90;;;;;;5033235;28;19916;-78
2021/08/24 11:36:01;;;;;;;;;;;8.00;99.90;;;;;;5033728;28;19910;-77
2021/08/24 11:38:33;;;;;;;;;;;7.90;99.90;;;;;;5033439;28;19933;-78
2021/08/24 11:41:09;;;;;;;;;;;7.80;99.90;;;;;;5033542;28;19909;-79
2021/08/24 11:43:56;;;;;;;;;;;7.80;99.90;;;;;;5033142;28;20356;-77
2021/08/24 11:46:29;;;;;;;;;;;7.80;99.90;;;;;;5033202;28;19929;-78
2021/08/24 11:49:24;;;;;;;;;;;7.80;99.90;;;;;;5033237;28;19957;-77
2021/08/24 11:52:14;;;;;;;;;;;7.80;99.90;;;;;;5032137;28;19917;-78
2021/08/24 11:55:08;;;;;;;;;;;7.80;99.90;;;;;;5032685;28;19916;-77
2021/08/24 11:57:40;;;;;;;;;;;7.80;99.90;;;;;;5032045;28;20275;-77
2021/08/24 12:00:08;;;;;;;;;;;7.80;99.90;;;;;;5033187;28;19997;-78
2021/08/24 12:02:40;;;;;;;;;;;7.80;99.90;;;;;;5033049;28;19916;-77
2021/08/24 12:05:13;;;;;;;;;;;7.70;99.90;;;;;;5032978;28;19956;-78
2021/08/24 12:07:41;;;;;;;;;;;7.70;99.90;;;;;;5032781;28;19963;-76
2021/08/24 12:10:25;;;;;;;;;;;7.70;99.90;;;;;;5033736;28;19910;-77
2021/08/24 12:12:57;;;;;;;;;;;7.70;99.90;;;;;;5033934;28;19955;-78
2021/08/24 12:15:36;;;;;;;;;;;7.80;99.90;;;;;;5033013;28;19910;-77
2021/08/24 12:18:09;;;;;;;;;;;7.70;99.90;;;;;;5032958;28;19923;-77
2021/08/24 12:20:44;;;;;;;;;;;7.70;99.90;;;;;;5033000;28;19909;-76
2021/08/24 12:23:13;;;;;;;;;;;7.70;99.90;;;;;;5031271;28;19916;-76
2021/08/24 12:25:48;;;;;;;;;;;7.70;99.90;;;;;;5032510;28;19924;-76
2021/08/24 12:28:14;;;;;;;;;;;7.70;99.90;;;;;;5033477;28;19948;-77
2021/08/24 12:30:57;;;;;;;;;;;7.60;99.90;;;;;;5036687;28;19909;-76
2021/08/24 12:33:32;;;;;;;;;;;7.70;99.90;;;;;;5056837;28;19909;-76
2021/08/24 12:36:04;;;;;;;;;;;7.70;99.90;;;;;;5057034;28;19913;-76
2021/08/24 12:38:46;;;;;;;;;;;7.70;99.90;;;;;;5053859;28;19913;-79
2021/08/24 12:41:32;;;;;;;;;;;7.70;99.90;;;;;;5035903;28;19910;-81
2021/08/24 12:44:20;;;;;;;;;;;7.70;99.90;;;;;;5035709;28;20012;-78
2021/08/24 12:46:51;;;;;;;;;;;7.70;99.90;;;;;;5035841;28;19937;-79
2021/08/24 12:49:19;;;;;;;;;;;7.70;99.90;;;;;;5035865;28;20024;-78
2021/08/24 12:51:57;;;;;;;;;;;7.70;99.90;;;;;;5035343;28;19916;-78
2021/08/24 12:54:29;;;;;;;;;;;7.80;99.90;;;;;;5035956;28;19909;-79
2021/08/24 12:57:16;;;;;;;;;;;7.70;99.90;;;;;;5035995;28;19909;-78
2021/08/24 12:59:42;;;;;;;;;;;7.70;99.90;;;;;;5035326;28;19913;-79
2021/08/24 13:02:30;;;;;;;;;;;7.80;99.90;;;;;;5036234;28;19909;-78
2021/08/24 13:05:15;;;;;;;;;;;7.70;99.90;;;;;;5036527;28;19960;-81
2021/08/24 13:07:42;;;;;;;;;;;7.80;99.90;;;;;;5067796;28;19914;-79
2021/08/24 13:10:17;;;;;;;;;;;7.80;99.90;;;;;;5035506;28;19990;-76
2021/08/24 13:12:45;;;;;;;;;;;7.80;99.90;;;;;;5035695;28;19909;-80
2021/08/24 13:15:30;;;;;;;;;;;7.80;99.90;;;;;;5035536;28;19935;-78
2021/08/24 13:18:09;;;;;;;;;;;7.80;99.90;;;;;;5035374;28;19909;-78
2021/08/24 13:20:43;;;;;;;;;;;7.70;99.90;;;;;;5035649;28;19909;-78
2021/08/24 13:23:30;;;;;;;;;;;7.80;99.90;;;;;;5035374;28;20025;-78
2021/08/24 13:26:02;;;;;;;;;;;7.70;99.90;;;;;;5035535;28;19917;-78
2021/08/24 13:28:30;;;;;;;;;;;7.80;99.90;;;;;;5035517;28;19917;-76
2021/08/24 13:31:00;;;;;;;;;;;7.70;99.90;;;;;;5035233;28;19910;-78
2021/08/24 13:33:33;;;;;;;;;;;7.80;99.90;;;;;;5035282;28;19920;-78
2021/08/24 13:36:02;;;;;;;;;;;7.80;99.90;;;;;;5035208;28;19916;-78
2021/08/24 13:38:35;;;;;;;;;;;7.80;99.90;;;;;;5035330;28;19909;-78
2021/08/24 13:41:25;;;;;;;;;;;7.80;99.90;;;;;;5034400;28;19981;-77
2021/08/24 13:43:53;;;;;;;;;;;7.70;99.90;;;;;;5034387;28;20290;-77
2021/08/24 13:46:32;;;;;;;;;;;7.80;99.90;;;;;;5034920;28;20287;-77
2021/08/24 13:48:59;;;;;;;;;;;7.80;99.90;;;;;;5035317;28;19967;-79
2021/08/24 13:51:26;;;;;;;;;;;7.80;99.90;;;;;;5034969;28;19909;-78
2021/08/24 13:53:55;;;;;;;;;;;7.80;99.90;;;;;;5035070;28;19913;-78
2021/08/24 13:56:32;;;;;;;;;;;7.90;99.90;;;;;;5035007;28;19959;-78
2021/08/24 13:59:00;;;;;;;;;;;7.80;99.90;;;;;;5038703;28;19972;-78
2021/08/24 14:01:31;;;;;;;;;;;7.80;99.90;;;;;;5034909;28;19919;-78
2021/08/24 14:04:16;;;;;;;;;;;7.90;99.90;;;;;;5034909;28;20287;-79
2021/08/24 14:06:58;;;;;;;;;;;7.90;99.90;;;;;;5034781;28;19913;-78
2021/08/24 14:09:28;;;;;;;;;;;7.80;99.90;;;;;;5033418;28;20352;-77
2021/08/24 14:11:57;;;;;;;;;;;7.80;99.90;;;;;;5034696;28;19932;-78
2021/08/24 14:14:49;;;;;;;;;;;7.90;99.90;;;;;;5033461;28;20360;-77
2021/08/24 14:17:25;;;;;;;;;;;7.90;99.90;;;;;;5034411;28;19916;-78
2021/08/24 14:19:52;;;;;;;;;;;7.80;99.90;;;;;;5034229;28;20405;-79
2021/08/24 14:22:18;;;;;;;;;;;7.90;99.90;;;;;;5034396;28;19920;-78
2021/08/24 14:24:47;;;;;;;;;;;7.90;99.90;;;;;;5033924;28;19922;-77
2021/08/24 14:27:15;;;;;;;;;;;7.90;99.90;;;;;;5033587;28;19913;-78
2021/08/24 14:29:41;;;;;;;;;;;7.90;99.90;;;;;;5034332;28;19913;-77
2021/08/24 14:32:28;;;;;;;;;;;7.90;99.90;;;;;;5034012;28;20407;-77
2021/08/24 14:34:54;;;;;;;;;;;7.90;99.90;;;;;;5034154;28;19940;-78
2021/08/24 14:37:24;;;;;;;;;;;8.00;99.90;;;;;;5033676;28;19917;-78
2021/08/24 14:39:56;;;;;;;;;;;7.90;99.90;;;;;;5033890;28;19977;-78
2021/08/24 14:42:28;;;;;;;;;;;7.90;99.90;;;;;;5032898;28;19909;-78
2021/08/24 14:44:59;;;;;;;;;;;7.90;99.90;;;;;;5034526;28;20277;-77
2021/08/24 14:47:43;;;;;;;;;;;7.90;99.90;;;;;;5034279;28;19921;-77
2021/08/24 14:50:12;;;;;;;;;;;8.00;99.90;;;;;;5080687;28;19905;-77
2021/08/24 14:52:49;;;;;;;;;;;8.10;99.90;;;;;;5055438;28;19909;-78